createdAt,value
2023-07-10T00:01:33.045Z,22.48
2023-07-10T00:04:00.443Z,20.20
2023-07-10T00:06:27.744Z,17.67
2023-07-10T00:08:54.884Z,16.00
2023-07-10T00:11:31.805Z,17.42
2023-07-10T00:13:59.359Z,18.58
2023-07-10T00:16:28.259Z,18.10
2023-07-10T00:18:55.540Z,17.60
2023-07-10T00:21:22.693Z,18.45
2023-07-10T00:23:49.832Z,14.43
2023-07-10T00:26:26.601Z,18.05
2023-07-10T00:28:57.784Z,15.68
2023-07-10T00:31:28.728Z,17.23
2023-07-10T00:33:55.966Z,13.35
2023-07-10T00:36:39.568Z,10.88
2023-07-10T00:39:36.883Z,9.90
2023-07-10T00:42:13.442Z,22.30
2023-07-10T00:44:53.249Z,12.18
2023-07-10T00:47:27.128Z,8.52
2023-07-10T00:50:17.362Z,8.07
2023-07-10T00:52:48.151Z,9.13
2023-07-10T00:55:23.955Z,13.07
2023-07-10T00:58:30.331Z,14.10
2023-07-10T01:01:24.743Z,14.32
2023-07-10T01:03:53.677Z,14.25
2023-07-10T01:06:32.611Z,11.25
2023-07-10T01:09:06.313Z,9.00
2023-07-10T01:11:38.686Z,12.82
2023-07-10T01:14:07.675Z,13.48
2023-07-10T01:16:35.440Z,11.00
2023-07-10T01:19:03.146Z,14.15
2023-07-10T01:21:33.746Z,10.52
2023-07-10T01:24:04.524Z,13.35
2023-07-10T01:26:32.183Z,16.67
2023-07-10T01:29:00.000Z,14.82
2023-07-10T01:31:28.860Z,10.20
2023-07-10T01:34:01.758Z,9.20
2023-07-10T01:36:35.598Z,7.05
2023-07-10T01:39:11.882Z,12.15
2023-07-10T01:41:42.375Z,8.00
2023-07-10T01:44:30.207Z,9.67
2023-07-10T01:46:59.030Z,6.35
2023-07-10T01:49:59.320Z,5.63
2023-07-10T01:52:27.056Z,6.68
2023-07-10T01:54:56.955Z,7.97
2023-07-10T01:57:25.299Z,7.43
2023-07-10T01:59:53.587Z,11.48
2023-07-10T02:02:21.183Z,10.70
2023-07-10T02:04:48.403Z,6.35
2023-07-10T02:07:15.650Z,8.57
2023-07-10T02:09:42.837Z,5.85
2023-07-10T02:12:10.481Z,12.60
2023-07-10T02:14:37.713Z,8.40
2023-07-10T02:17:05.708Z,7.75
2023-07-10T02:19:32.978Z,11.55
2023-07-10T02:22:00.136Z,7.68
2023-07-10T02:24:27.272Z,9.32
2023-07-10T02:26:54.462Z,6.45
2023-07-10T02:29:21.623Z,9.98
2023-07-10T02:31:52.248Z,8.93
2023-07-10T02:34:19.610Z,6.53
2023-07-10T02:36:46.824Z,6.53
2023-07-10T02:39:13.987Z,12.73
2023-07-10T02:41:41.106Z,15.52
2023-07-10T02:44:08.289Z,11.30
2023-07-10T02:46:38.476Z,11.15
2023-07-10T02:49:06.203Z,11.23
2023-07-10T02:51:33.359Z,13.27
2023-07-10T02:54:01.318Z,8.10
2023-07-10T02:56:28.447Z,8.48
2023-07-10T02:58:55.575Z,9.00
2023-07-10T03:01:27.688Z,8.77
2023-07-10T03:03:54.878Z,7.60
2023-07-10T03:06:24.509Z,5.50
2023-07-10T03:08:51.732Z,7.80
2023-07-10T03:11:19.041Z,9.38
2023-07-10T03:13:46.197Z,11.88
2023-07-10T03:16:16.098Z,12.80
2023-07-10T03:18:43.541Z,8.10
2023-07-10T03:21:11.368Z,8.75
2023-07-10T03:23:38.642Z,8.90
2023-07-10T03:26:06.216Z,7.53
2023-07-10T03:28:38.525Z,10.85
2023-07-10T03:31:07.036Z,8.65
2023-07-10T03:33:35.643Z,7.90
2023-07-10T03:36:09.753Z,12.00
2023-07-10T03:38:37.264Z,10.45
2023-07-10T03:41:05.686Z,7.50
2023-07-10T03:43:32.868Z,10.68
2023-07-10T03:46:00.469Z,9.20
2023-07-10T03:48:27.592Z,7.80
2023-07-10T03:50:54.922Z,8.00
2023-07-10T03:53:22.086Z,11.27
2023-07-10T03:55:54.182Z,9.77
2023-07-10T03:58:31.428Z,12.32
2023-07-10T04:01:01.429Z,11.38
2023-07-10T04:03:34.337Z,8.85
2023-07-10T04:06:02.744Z,11.68
2023-07-10T04:08:36.982Z,12.82
2023-07-10T04:11:12.240Z,12.95
2023-07-10T04:13:40.224Z,14.77
2023-07-10T04:16:26.861Z,11.75
2023-07-10T04:18:55.540Z,13.35
2023-07-10T04:21:29.149Z,12.43
2023-07-10T04:23:57.263Z,7.07
2023-07-10T04:26:33.909Z,10.13
2023-07-10T04:29:05.188Z,12.38
2023-07-10T04:31:33.852Z,7.72
2023-07-10T04:34:01.560Z,8.18
2023-07-10T04:36:28.989Z,11.65
2023-07-10T04:38:56.325Z,11.48
2023-07-10T04:41:25.492Z,10.85
2023-07-10T04:43:52.730Z,10.88
2023-07-10T04:49:06.223Z,11.25
2023-07-10T04:51:33.636Z,11.23
2023-07-10T04:54:00.765Z,10.98
2023-07-10T04:56:27.878Z,8.70
2023-07-10T04:58:57.921Z,15.43
2023-07-10T05:01:31.363Z,11.00
2023-07-10T05:03:58.834Z,15.93
2023-07-10T05:06:26.534Z,13.00
2023-07-10T05:08:56.458Z,12.48
2023-07-10T05:11:30.396Z,9.13
2023-07-10T05:13:58.430Z,10.60
2023-07-10T05:16:26.201Z,11.68
2023-07-10T05:18:53.426Z,11.13
2023-07-10T05:21:21.081Z,11.82
2023-07-10T05:23:48.277Z,14.57
2023-07-10T05:26:17.813Z,16.80
2023-07-10T05:28:45.689Z,12.48
2023-07-10T05:31:14.091Z,13.95
2023-07-10T05:33:42.244Z,14.65
2023-07-10T05:36:12.550Z,13.75
2023-07-10T05:38:40.918Z,17.50
2023-07-10T05:41:08.356Z,18.15
2023-07-10T05:43:36.618Z,14.77
2023-07-10T05:46:05.348Z,17.77
2023-07-10T05:48:33.477Z,15.13
2023-07-10T05:51:00.877Z,14.48
2023-07-10T05:53:28.366Z,15.82
2023-07-10T05:55:58.004Z,14.40
2023-07-10T05:58:28.329Z,15.30
2023-07-10T06:01:00.691Z,18.17
2023-07-10T06:03:33.980Z,14.63
2023-07-10T06:06:06.920Z,14.85
2023-07-10T06:08:36.391Z,21.33
2023-07-10T06:11:05.785Z,12.38
2023-07-10T06:13:33.512Z,20.95
2023-07-10T06:16:01.533Z,15.77
2023-07-10T06:18:28.843Z,13.63
2023-07-10T06:20:58.586Z,12.35
2023-07-10T06:23:28.581Z,14.88
2023-07-10T06:25:56.145Z,16.83
2023-07-10T06:28:23.570Z,16.05
2023-07-10T06:31:06.427Z,13.10
2023-07-10T06:33:34.549Z,12.95
2023-07-10T06:36:02.242Z,11.13
2023-07-10T06:38:29.456Z,13.98
2023-07-10T06:40:57.292Z,15.02
2023-07-10T06:43:25.282Z,12.73
2023-07-10T06:45:55.179Z,11.93
2023-07-10T06:48:22.371Z,13.50
2023-07-10T06:50:54.478Z,16.45
2023-07-10T06:53:27.410Z,12.40
2023-07-10T06:56:02.566Z,15.85
2023-07-10T06:58:34.006Z,15.13
2023-07-10T07:01:02.516Z,21.73
2023-07-10T07:03:32.200Z,14.20
2023-07-10T07:05:59.467Z,11.43
2023-07-10T07:08:27.384Z,11.70
2023-07-10T07:10:55.219Z,14.95
2023-07-10T07:13:22.867Z,15.15
2023-07-10T12:53:39.303Z,16.10
2023-07-10T12:56:23.549Z,10.38
2023-07-10T12:58:51.292Z,10.65
2023-07-10T13:01:24.351Z,13.13
2023-07-10T13:04:34.935Z,9.18
2023-07-10T13:07:30.343Z,15.40
2023-07-10T13:10:28.798Z,15.18
2023-07-10T13:13:01.228Z,11.15
2023-07-10T13:15:43.006Z,8.00
2023-07-10T13:18:26.341Z,9.50
2023-07-10T13:20:56.709Z,8.60
2023-07-10T13:23:23.909Z,11.27
2023-07-10T13:25:53.548Z,8.90
2023-07-10T13:28:27.905Z,8.88
2023-07-10T13:30:57.580Z,10.35
2023-07-10T13:33:29.340Z,9.00
2023-07-10T13:35:59.290Z,14.85
2023-07-10T13:38:27.384Z,10.85
2023-07-10T13:40:54.578Z,10.65
2023-07-10T13:43:24.174Z,7.95
2023-07-10T13:46:02.983Z,10.55
2023-07-10T13:48:31.016Z,8.82
2023-07-10T13:50:58.286Z,8.93
2023-07-10T13:53:26.385Z,8.05
2023-07-10T13:55:53.623Z,10.77
2023-07-10T13:58:27.109Z,11.95
2023-07-10T14:00:56.833Z,6.53
2023-07-10T14:03:25.762Z,12.88
2023-07-10T14:05:59.620Z,9.02
2023-07-10T14:08:30.522Z,9.60
2023-07-10T14:11:00.067Z,9.18
2023-07-10T14:13:27.546Z,7.88
2023-07-10T14:16:06.920Z,10.68
2023-07-10T14:18:34.478Z,10.57
2023-07-10T14:21:03.644Z,9.48
2023-07-10T14:23:31.096Z,9.02
2023-07-10T14:25:58.634Z,8.35
2023-07-10T14:28:27.824Z,8.52
2023-07-10T14:30:55.523Z,11.93
2023-07-10T14:33:23.885Z,14.27
2023-07-10T14:36:02.153Z,8.15
2023-07-10T14:38:29.624Z,6.20
2023-07-10T14:40:57.499Z,6.47
2023-07-10T14:43:24.794Z,10.13
2023-07-10T14:45:57.957Z,11.23
2023-07-10T14:48:28.798Z,12.00
2023-07-10T14:50:57.920Z,9.00
2023-07-10T14:53:29.604Z,11.82
2023-07-10T14:55:57.652Z,4.68
2023-07-10T14:58:30.773Z,4.97
2023-07-10T15:00:58.202Z,8.68
2023-07-10T15:03:25.525Z,6.93
2023-07-10T15:05:56.074Z,7.85
2023-07-10T15:08:35.282Z,5.80
2023-07-10T15:11:03.251Z,7.65
2023-07-10T15:13:32.273Z,4.35
2023-07-10T15:16:04.441Z,3.15
2023-07-10T15:18:34.259Z,4.82
2023-07-10T15:21:05.663Z,5.55
2023-07-10T15:23:33.921Z,5.40
2023-07-10T15:26:04.535Z,5.65
2023-07-10T15:28:32.396Z,6.43
2023-07-10T15:31:06.291Z,9.38
2023-07-10T15:33:37.536Z,8.80
2023-07-10T15:36:05.532Z,5.88
2023-07-10T15:38:33.445Z,9.65
2023-07-10T15:41:04.474Z,7.10
2023-07-10T15:43:36.343Z,5.07
2023-07-10T15:46:03.677Z,6.43
2023-07-10T15:48:31.049Z,4.43
2023-07-10T15:50:58.917Z,3.97
2023-07-10T15:53:30.918Z,11.52
2023-07-10T15:55:58.263Z,8.35
2023-07-10T15:58:26.771Z,6.47
2023-07-10T16:00:56.251Z,6.50
2023-07-10T16:03:27.505Z,5.78
2023-07-10T16:05:57.948Z,6.00
2023-07-10T16:08:28.991Z,7.10
2023-07-10T16:11:14.823Z,5.97
2023-07-10T16:13:43.630Z,5.93
2023-07-10T16:16:11.041Z,6.68
2023-07-10T16:18:38.624Z,6.28
2023-07-10T16:21:21.240Z,9.77
2023-07-10T16:23:48.934Z,8.20
2023-07-10T16:26:17.930Z,10.27
2023-07-10T16:28:45.562Z,7.07
2023-07-10T16:31:18.734Z,11.95
2023-07-10T16:33:46.007Z,12.85
2023-07-10T16:36:18.173Z,7.32
2023-07-10T16:38:45.812Z,7.22
2023-07-10T16:41:21.565Z,5.90
2023-07-10T16:43:50.035Z,9.52
2023-07-10T16:46:18.240Z,6.75
2023-07-10T16:48:48.182Z,9.50
2023-07-10T16:51:28.380Z,5.38
2023-07-10T16:53:55.803Z,8.48
2023-07-10T16:56:25.124Z,8.23
2023-07-10T16:58:52.960Z,7.03
2023-07-10T17:01:27.943Z,5.00
2023-07-10T17:03:57.713Z,13.60
2023-07-10T17:06:28.122Z,4.75
2023-07-10T17:08:56.150Z,5.43
2023-07-10T17:11:34.518Z,5.60
2023-07-10T17:21:23.257Z,8.20
2023-07-10T17:23:51.059Z,7.25
2023-07-10T17:26:21.199Z,5.70
2023-07-10T17:28:49.768Z,4.13
2023-07-10T17:31:29.677Z,4.50
2023-07-10T17:33:59.025Z,8.20
2023-07-10T17:36:27.226Z,7.40
2023-07-10T17:38:58.221Z,10.98
2023-07-10T17:41:30.687Z,6.95
2023-07-10T17:44:10.266Z,7.95
2023-07-10T17:46:37.430Z,5.68
2023-07-10T17:49:04.568Z,8.63
2023-07-10T17:51:34.116Z,7.38
2023-07-10T17:54:02.218Z,7.20
2023-07-10T17:56:29.641Z,4.97
2023-07-10T17:58:56.874Z,8.45
2023-07-10T18:01:26.987Z,10.73
2023-07-10T18:03:58.323Z,9.70
2023-07-10T18:11:33.867Z,8.85
2023-07-10T18:14:02.081Z,8.35
2023-07-10T18:16:29.528Z,6.18
2023-07-10T18:18:56.764Z,5.60
2023-07-10T18:21:29.699Z,6.03
2023-07-10T18:24:00.028Z,6.18
2023-07-10T18:26:29.857Z,5.75
2023-07-10T18:28:58.025Z,11.25
2023-07-10T20:23:47.163Z,8.27
2023-07-10T20:26:22.130Z,5.97
2023-07-10T20:28:49.774Z,6.93
2023-07-10T20:31:19.627Z,8.40
2023-07-10T20:33:49.280Z,7.10
2023-07-10T20:36:20.118Z,9.65
2023-07-10T20:38:49.709Z,4.85
2023-07-10T20:41:21.940Z,13.50
2023-07-10T20:43:50.254Z,6.25
2023-07-10T20:46:24.293Z,5.80
2023-07-10T20:48:52.237Z,5.35
2023-07-10T20:51:25.970Z,7.95
2023-07-10T20:53:55.665Z,8.40
2023-07-10T20:56:31.697Z,4.07
2023-07-10T20:59:02.207Z,7.28
2023-07-10T21:01:31.563Z,8.00
2023-07-10T21:03:59.406Z,7.55
2023-07-10T21:06:34.514Z,6.00
2023-07-10T21:09:18.354Z,5.38
2023-07-10T21:11:45.469Z,4.85
2023-07-10T21:14:12.666Z,5.68
2023-07-10T21:16:39.824Z,5.80
2023-07-10T21:19:30.467Z,7.30
2023-07-10T21:21:57.779Z,5.72
2023-07-10T21:24:25.041Z,6.07
2023-07-10T21:26:56.691Z,6.05
2023-07-10T21:29:24.693Z,6.28
2023-07-10T21:31:52.645Z,8.63
2023-07-10T21:34:19.825Z,9.45
2023-07-10T21:36:46.985Z,12.90
2023-07-10T21:39:14.222Z,4.05
2023-07-10T21:41:43.300Z,10.02
2023-07-10T21:44:24.471Z,6.32
2023-07-10T21:46:52.086Z,8.32
2023-07-10T21:49:19.602Z,10.05
2023-07-10T21:51:47.182Z,8.55
2023-07-10T21:54:14.313Z,7.50
2023-07-10T21:56:44.189Z,9.98
2023-07-10T21:59:21.052Z,7.40
2023-07-10T22:01:49.339Z,7.45
2023-07-10T22:04:16.885Z,5.72
2023-07-10T22:06:46.116Z,8.57
2023-07-10T22:09:14.656Z,4.82
2023-07-10T22:11:43.689Z,6.88
2023-07-10T22:14:16.309Z,10.48
2023-07-10T22:16:44.746Z,7.90
2023-07-10T22:19:13.953Z,8.48
2023-07-10T22:21:42.473Z,17.55
2023-07-10T22:24:19.813Z,7.88
2023-07-10T22:26:47.254Z,9.05
2023-07-10T22:29:14.560Z,7.13
2023-07-10T22:31:45.152Z,8.10
2023-07-10T22:34:13.200Z,6.57
2023-07-10T22:36:40.491Z,7.35
2023-07-10T22:39:07.678Z,8.15
2023-07-10T22:41:35.821Z,10.32
2023-07-10T22:44:13.762Z,7.43
2023-07-10T22:46:43.932Z,7.75
2023-07-10T22:49:13.450Z,8.23
2023-07-10T22:51:41.465Z,7.30
2023-07-10T22:54:09.837Z,5.85
2023-07-10T22:56:42.181Z,5.90
2023-07-10T22:59:19.698Z,10.57
2023-07-10T23:01:49.103Z,9.98
2023-07-10T23:04:18.736Z,7.28
2023-07-10T23:06:46.551Z,6.57
2023-07-10T23:09:13.702Z,7.65
2023-07-10T23:11:40.899Z,12.35
2023-07-10T23:14:08.361Z,6.75
2023-07-10T23:16:36.024Z,6.13
2023-07-10T23:19:03.443Z,10.10
2023-07-10T23:21:30.798Z,10.00
2023-07-10T23:24:00.820Z,7.00
2023-07-10T23:26:28.025Z,8.85
2023-07-10T23:28:55.138Z,6.63
2023-07-10T23:31:29.673Z,8.45
2023-07-10T23:33:58.012Z,8.95
2023-07-10T23:36:28.473Z,8.40
2023-07-10T23:39:00.314Z,8.93
2023-07-10T23:41:27.643Z,9.05
2023-07-10T23:43:54.859Z,7.88
2023-07-10T23:46:22.193Z,8.98
2023-07-10T23:48:49.793Z,12.40
2023-07-10T23:51:17.195Z,7.78
2023-07-10T23:53:44.308Z,7.63
2023-07-10T23:56:12.045Z,8.50
2023-07-10T23:58:39.241Z,5.88
